EDT,Max TemperatureF,Mean TemperatureF,Min TemperatureF,Max Dew PointF,MeanDew PointF,Min DewpointF,Max Humidity, Mean Humidity, Min Humidity, Max Sea Level PressureIn, Mean Sea Level PressureIn, Min Sea Level PressureIn, Max VisibilityMiles, Mean VisibilityMiles, Min VisibilityMiles, Max Wind SpeedMPH, Mean Wind SpeedMPH, Max Gust SpeedMPH,PrecipitationIn, CloudCover, Events, WindDirDegrees
2012-10-1,65,57,49,54,47,45,93,73,52,29.92,29.85,29.74,10,10,4,14,7,18,0.18,7,Rain,69
2012-10-2,80,68,56,66,61,54,100,81,62,29.89,29.78,29.72,10,8,0,16,6,20,0.22,7,Rain,69
2012-10-3,70,64,57,63,57,52,100,77,53,30.15,30.02,29.88,10,6,0,20,6,25,0.00,7,Fog,188
2012-10-4,77,65,53,55,53,51,100,70,40,30.20,30.16,30.12,10,9,6,21,7,29,0.00,3,,218
2012-10-5,76,62,47,58,53,45,86,66,46,30.14,30.03,29.95,10,10,6,20,7,25,0.18,6,Rain,292
2012-10-6,57,50,42,45,39,28,93,64,35,30.13,30.04,29.97,10,8,2,17,8,22,0.37,6,Rain,310
2012-10-7,49,47,45,38,35,33,70,63,56,30.19,30.14,30.10,10,10,10,15,6,20,0.01,8,Rain,297
2012-10-8,54,45,36,38,34,30,85,66,46,30.27,30.21,30.17,10,10,9,13,3,23,0.00,4,,190
2012-10-9,60,48,36,40,37,34,92,65,37,30.21,30.12,29.99,10,9,4,15,6,22,0.00,1,,171
2012-10-10,57,48,38,45,37,29,89,64,38,30.23,30.03,29.92,10,10,9,26,9,32,0.01,4,Rain,256
2012-10-11,60,46,32,33,30,28,89,59,29,30.32,30.24,30.16,10,10,9,16,5,23,0.00,1,,193
2012-10-12,58,50,41,39,32,25,76,53,30,30.39,30.32,30.18,10,10,10,15,6,20,T,3,,42
2012-10-13,70,54,38,54,40,28,70,56,42,30.37,30.21,30.04,10,10,10,17,10,22,0.00,5,,145
2012-10-14,78,70,61,61,57,55,81,66,50,30.03,29.85,29.69,10,9,1,37,16,49,0.42,7,Rain,197
2012-10-15,61,55,49,55,47,40,93,77,61,29.95,29.83,29.71,10,10,4,28,12,33,0.02,8,Rain,276
2012-10-16,62,50,38,40,39,36,93,66,39,30.02,29.94,29.83,10,10,7,12,4,18,0.00,3,,188
2012-10-17,75,64,52,50,44,39,64,50,35,29.85,29.77,29.63,10,10,10,20,9,24,0.00,6,,156
2012-10-18,65,58,50,51,40,28,83,55,27,29.75,29.63,29.54,10,10,10,30,15,38,0.10,5,Rain,194
2012-10-19,59,53,47,46,43,35,93,68,43,29.70,29.66,29.57,10,9,6,25,11,32,0.29,7,Rain,189
2012-10-20,56,49,42,45,43,38,93,74,54,29.99,29.79,29.70,10,9,2,20,9,25,0.16,7,Rain,232
2012-10-21,61,49,37,43,40,36,100,74,47,30.17,30.11,30.01,10,8,2,14,3,22,0.00,1,,181
2012-10-22,77,61,45,54,48,41,92,68,43,30.16,30.10,30.05,10,10,10,16,5,21,T,4,Rain,181
2012-10-23,78,69,59,53,50,47,67,52,36,30.07,30.03,29.99,10,10,10,20,6,24,T,7,Rain,206
2012-10-24,79,69,59,58,53,49,90,65,39,30.13,30.07,30.03,10,10,10,23,8,30,0.05,3,Rain,187
2012-10-25,80,67,53,52,50,48,83,60,36,30.08,30.02,29.96,10,10,10,17,6,23,0.00,1,,176
2012-10-26,64,53,42,54,48,45,100,80,60,30.13,30.08,29.97,10,9,3,22,9,29,0.61,7,Rain,360
2012-10-27,51,49,46,47,44,39,93,80,66,30.10,30.06,30.01,10,8,2,20,12,28,0.37,8,Rain,357
2012-10-28,47,43,39,41,39,36,92,79,65,30.08,30.01,29.97,10,10,7,25,16,35,0.58,8,Rain,356
2012-10-29,41,39,37,38,37,35,100,93,85,29.97,29.83,29.57,10,9,6,32,21,44,0.23,8,Rain-Snow,331
2012-10-30,40,37,34,38,35,33,100,93,85,29.55,29.42,29.34,10,7,1,31,21,44,0.15,8,Rain-Snow,315
2012-10-31,42,40,38,39,38,36,100,88,76,29.75,29.65,29.54,10,8,2,21,13,25,0.11,8,Rain-Snow,282